Terminal Aerodrome Forecast
Issued by NWS

Home | Current Version | Previous Version | Graphics & Text | Print | Product List | Glossary On
Versions: 1 2 3 4 5 6 7 8 9 10 11 12 13 14 15 16
000
FTUS42 KMHX 252115 AAB
TAFISO
TAF AMD
KISO 252115Z 2521/2618 13005KT P6SM VCSH SCT020 BKN040
     FM252300 15003KT 6SM -RA SCT007 OVC020
     FM260100 VRB03KT 5SM -RA BKN007 OVC015
     FM260400 03004KT 3SM BR VCSH OVC004
     FM261500 02007KT P6SM VCSH OVC007
     FM261700 02008KT P6SM VCSH OVC015
      AMD LTD TO CLD VIS AND WIND=

USA.gov is the U.S. government's official web portal to all federal, state and local government web resources and services.